createdAt,value
2022-10-06T00:01:03.241Z,13.40
2022-10-06T00:03:29.369Z,12.93
2022-10-06T00:05:55.458Z,12.54
2022-10-06T00:08:21.573Z,12.33
2022-10-06T00:10:47.685Z,12.14
2022-10-06T00:13:13.774Z,11.93
2022-10-06T00:15:39.958Z,11.78
2022-10-06T00:18:06.128Z,11.81
2022-10-06T00:20:32.222Z,11.85
2022-10-06T00:22:58.710Z,11.83
2022-10-06T00:25:24.806Z,11.83
2022-10-06T00:27:50.896Z,11.91
2022-10-06T00:30:17.013Z,11.83
2022-10-06T00:32:43.088Z,11.82
2022-10-06T00:35:09.173Z,11.84
2022-10-06T00:37:35.289Z,11.92
2022-10-06T00:40:01.392Z,11.98
2022-10-06T00:42:27.589Z,11.97
2022-10-06T00:44:53.701Z,11.90
2022-10-06T00:47:19.784Z,11.98
2022-10-06T00:49:45.887Z,11.85
2022-10-06T00:52:11.995Z,11.86
2022-10-06T00:54:38.097Z,11.86
2022-10-06T00:57:04.185Z,11.87
2022-10-06T00:59:30.310Z,11.88
2022-10-06T01:01:56.634Z,11.87
2022-10-06T01:04:22.811Z,11.91
2022-10-06T01:06:48.925Z,11.92
2022-10-06T01:09:15.024Z,11.91
2022-10-06T01:11:41.134Z,11.86
2022-10-06T01:14:07.249Z,11.92
2022-10-06T01:16:33.404Z,11.88
2022-10-06T01:18:59.498Z,11.92
2022-10-06T01:21:25.593Z,11.89
2022-10-06T01:23:51.723Z,11.91
2022-10-06T01:26:17.815Z,11.95
2022-10-06T01:28:43.985Z,11.87
2022-10-06T01:31:10.219Z,11.87
2022-10-06T01:33:36.363Z,11.94
2022-10-06T01:36:02.831Z,11.96
2022-10-06T01:38:29.180Z,11.89
2022-10-06T01:40:55.448Z,11.94
2022-10-06T01:43:21.554Z,11.94
2022-10-06T01:45:47.655Z,11.96
2022-10-06T01:48:13.751Z,11.99
2022-10-06T01:50:39.869Z,12.02
2022-10-06T01:53:05.975Z,12.02
2022-10-06T01:55:32.055Z,11.97
2022-10-06T01:57:58.170Z,11.93
2022-10-06T02:00:24.269Z,11.93
2022-10-06T02:02:50.361Z,11.91
2022-10-06T02:05:16.456Z,11.86
2022-10-06T02:07:42.557Z,11.92
2022-10-06T02:10:08.635Z,11.97
2022-10-06T02:12:34.750Z,11.96
2022-10-06T02:15:00.843Z,11.90
2022-10-06T02:17:26.937Z,11.84
2022-10-06T02:19:53.048Z,11.85
2022-10-06T02:22:19.117Z,11.87
2022-10-06T02:24:45.194Z,11.85
2022-10-06T02:27:11.283Z,11.87
2022-10-06T02:29:37.360Z,11.84
2022-10-06T02:32:03.435Z,11.87
2022-10-06T02:34:29.536Z,11.86
2022-10-06T02:36:55.620Z,11.86
2022-10-06T02:39:21.709Z,11.88
2022-10-06T02:41:48.125Z,11.81
2022-10-06T02:44:14.207Z,11.80
2022-10-06T02:46:40.321Z,11.78
2022-10-06T02:49:06.454Z,11.71
2022-10-06T02:51:32.533Z,11.70
2022-10-06T02:53:58.816Z,11.75
2022-10-06T02:56:24.928Z,11.74
2022-10-06T02:58:51.020Z,11.68
2022-10-06T03:01:17.177Z,11.74
2022-10-06T03:03:43.314Z,11.71
2022-10-06T03:06:09.406Z,11.72
2022-10-06T03:08:35.503Z,11.73
2022-10-06T03:11:01.620Z,11.72
2022-10-06T03:13:27.720Z,11.67
2022-10-06T03:15:53.858Z,11.66
2022-10-06T03:18:20.040Z,11.70
2022-10-06T03:20:46.127Z,11.72
2022-10-06T03:23:13.702Z,11.74
2022-10-06T03:25:39.924Z,11.69
2022-10-06T03:28:06.045Z,11.71
2022-10-06T03:30:32.168Z,11.75
2022-10-06T03:32:58.257Z,11.84
2022-10-06T03:35:24.341Z,11.82
2022-10-06T03:37:50.440Z,11.84
2022-10-06T03:40:16.544Z,11.90
2022-10-06T03:42:42.641Z,11.91
2022-10-06T03:45:08.740Z,11.97
2022-10-06T03:47:34.846Z,11.93
2022-10-06T03:50:00.925Z,12.00
2022-10-06T03:52:27.014Z,12.02
2022-10-06T03:54:53.158Z,12.01
2022-10-06T03:57:19.245Z,11.93
2022-10-06T03:59:45.326Z,11.92
2022-10-06T04:02:11.523Z,11.90
2022-10-06T04:04:37.665Z,11.93
2022-10-06T04:07:03.773Z,11.87
2022-10-06T04:09:29.886Z,11.84
2022-10-06T04:11:55.964Z,11.90
2022-10-06T04:14:22.054Z,11.93
2022-10-06T04:16:48.278Z,11.92
2022-10-06T04:19:14.410Z,11.95
2022-10-06T04:21:40.488Z,11.96
2022-10-06T04:24:06.604Z,11.92
2022-10-06T04:26:32.693Z,11.97
2022-10-06T04:28:58.785Z,11.92
2022-10-06T04:31:24.897Z,11.95
2022-10-06T04:33:51.007Z,12.01
2022-10-06T04:36:17.097Z,11.92
2022-10-06T04:38:43.218Z,11.93
2022-10-06T04:41:09.307Z,11.90
2022-10-06T04:43:35.401Z,11.98
2022-10-06T04:46:09.511Z,11.94
2022-10-06T04:48:47.609Z,11.97
2022-10-06T04:51:13.725Z,11.97
2022-10-06T04:53:39.805Z,11.90
2022-10-06T04:56:05.882Z,11.85
2022-10-06T04:58:32.264Z,11.87
2022-10-06T05:00:58.653Z,11.89
2022-10-06T05:03:24.770Z,11.85
2022-10-06T05:05:50.881Z,11.81
2022-10-06T05:08:16.968Z,11.86
2022-10-06T05:10:43.055Z,11.74
2022-10-06T05:13:09.613Z,11.69
2022-10-06T05:15:35.727Z,11.77
2022-10-06T05:18:01.836Z,11.71
2022-10-06T05:20:27.957Z,11.65
2022-10-06T05:22:54.088Z,11.62
2022-10-06T05:25:20.190Z,11.65
2022-10-06T05:27:46.305Z,11.62
2022-10-06T05:30:12.384Z,11.56
2022-10-06T05:32:38.464Z,11.60
2022-10-06T05:35:04.586Z,11.59
2022-10-06T05:37:30.683Z,11.54
2022-10-06T05:39:56.764Z,11.45
2022-10-06T05:42:26.233Z,11.50
2022-10-06T05:44:55.546Z,11.52
2022-10-06T05:47:21.645Z,11.43
2022-10-06T05:49:48.030Z,11.51
2022-10-06T05:52:14.134Z,11.45
2022-10-06T05:54:40.229Z,11.45
2022-10-06T05:57:06.353Z,11.40
2022-10-06T05:59:32.446Z,11.38
2022-10-06T06:01:58.609Z,11.29
2022-10-06T06:04:24.750Z,11.30
2022-10-06T06:06:50.848Z,11.25
2022-10-06T06:09:16.933Z,11.33
2022-10-06T06:11:43.060Z,11.35
2022-10-06T06:14:09.150Z,11.27
2022-10-06T06:16:35.301Z,11.29
2022-10-06T06:19:01.424Z,11.32
2022-10-06T06:21:27.511Z,11.24
2022-10-06T06:23:53.614Z,11.24
2022-10-06T06:26:19.737Z,11.29
2022-10-06T06:28:45.850Z,11.36
2022-10-06T06:31:14.096Z,11.34
2022-10-06T06:33:42.337Z,11.32
2022-10-06T06:36:08.434Z,11.34
2022-10-06T06:38:34.621Z,11.32
2022-10-06T06:41:00.721Z,11.36
2022-10-06T06:43:27.253Z,11.39
2022-10-06T06:45:53.732Z,11.37
2022-10-06T06:48:19.973Z,11.32
2022-10-06T06:50:46.056Z,11.36
2022-10-06T06:53:16.178Z,11.38
2022-10-06T06:55:42.544Z,11.39
2022-10-06T06:58:08.624Z,11.42
2022-10-06T07:00:36.367Z,11.39
2022-10-06T07:03:02.591Z,11.45
2022-10-06T07:05:28.772Z,11.48
2022-10-06T07:07:54.875Z,11.45
2022-10-06T07:10:20.988Z,11.49
2022-10-06T07:12:47.072Z,11.56
2022-10-06T07:15:13.159Z,11.57
2022-10-06T07:17:39.808Z,11.59
2022-10-06T07:20:05.909Z,11.56
2022-10-06T07:22:32.001Z,11.60
2022-10-06T07:24:58.234Z,11.62
2022-10-06T07:27:24.322Z,11.66
2022-10-06T07:29:50.787Z,11.64
2022-10-06T07:32:17.094Z,11.67
2022-10-06T07:37:14.223Z,11.64
2022-10-06T07:39:40.396Z,11.69
2022-10-06T07:42:06.499Z,11.75
2022-10-06T07:44:32.585Z,11.78
2022-10-06T07:46:58.707Z,11.81
2022-10-06T07:49:24.792Z,11.81
2022-10-06T07:51:50.883Z,11.79
2022-10-06T07:54:17.291Z,11.94
2022-10-06T07:56:43.766Z,11.91
2022-10-06T07:59:09.871Z,11.98
2022-10-06T08:01:36.065Z,11.97
2022-10-06T08:04:02.191Z,12.05
2022-10-06T08:06:28.284Z,12.04
2022-10-06T08:08:54.392Z,12.00
2022-10-06T08:11:20.492Z,12.03
2022-10-06T08:13:46.578Z,12.07
2022-10-06T08:16:12.729Z,12.15
2022-10-06T08:18:46.347Z,12.13
2022-10-06T08:21:13.097Z,12.19
2022-10-06T08:23:39.201Z,12.25
2022-10-06T08:26:05.292Z,12.39
2022-10-06T08:28:31.436Z,12.57
2022-10-06T08:30:57.605Z,12.69
2022-10-06T08:33:23.763Z,12.66
2022-10-06T08:35:49.866Z,12.66
2022-10-06T08:38:15.949Z,12.74
2022-10-06T08:40:42.029Z,12.75
2022-10-06T08:43:08.192Z,12.73
2022-10-06T08:45:38.397Z,12.81
2022-10-06T08:48:05.089Z,12.88
2022-10-06T08:50:31.202Z,12.82
2022-10-06T08:52:57.295Z,12.94
2022-10-06T08:55:23.578Z,12.99
2022-10-06T08:57:49.837Z,13.03
2022-10-06T09:00:19.603Z,12.98
2022-10-06T09:02:47.801Z,13.08
2022-10-06T09:05:14.009Z,13.25
2022-10-06T09:07:40.183Z,13.30
2022-10-06T09:10:06.272Z,13.55
2022-10-06T09:12:32.455Z,13.46
2022-10-06T09:14:58.696Z,13.43
2022-10-06T09:17:24.841Z,13.69
2022-10-06T09:19:51.013Z,13.72
2022-10-06T09:22:17.137Z,13.56
2022-10-06T09:24:47.133Z,13.58
2022-10-06T09:27:13.717Z,13.64
2022-10-06T09:29:39.819Z,13.66
2022-10-06T09:32:06.138Z,13.72
2022-10-06T09:34:32.242Z,13.67
2022-10-06T09:37:01.354Z,13.56
2022-10-06T09:39:28.215Z,13.52
2022-10-06T09:41:54.308Z,13.48
2022-10-06T09:44:20.411Z,13.53
2022-10-06T09:46:46.501Z,13.63
2022-10-06T09:49:12.608Z,13.67
2022-10-06T09:51:38.681Z,13.59
2022-10-06T09:54:04.760Z,13.43
2022-10-06T09:56:30.884Z,13.50
2022-10-06T09:58:56.972Z,13.40
2022-10-06T10:01:23.122Z,13.52
2022-10-06T10:04:08.595Z,13.60
2022-10-06T10:06:35.320Z,13.62
2022-10-06T10:09:01.432Z,13.62
2022-10-06T10:11:27.517Z,13.69
2022-10-06T10:13:53.623Z,13.69
2022-10-06T10:16:19.887Z,13.63
2022-10-06T10:18:46.011Z,13.68
2022-10-06T10:21:12.092Z,13.73
2022-10-06T10:23:38.717Z,13.80
2022-10-06T10:26:04.801Z,13.79
2022-10-06T10:28:30.959Z,13.80
2022-10-06T10:30:57.123Z,13.75
2022-10-06T10:33:23.259Z,13.85
2022-10-06T10:35:49.344Z,13.90
2022-10-06T10:38:15.442Z,13.86
2022-10-06T10:40:41.622Z,14.00
2022-10-06T10:43:07.729Z,14.15
2022-10-06T10:45:33.844Z,14.15
2022-10-06T10:47:59.941Z,14.11
2022-10-06T10:50:26.048Z,14.21
2022-10-06T10:52:52.156Z,14.22
2022-10-06T10:55:18.256Z,14.23
2022-10-06T10:57:44.336Z,14.35
2022-10-06T11:00:10.440Z,14.40
2022-10-06T11:02:36.534Z,14.39
2022-10-06T11:05:02.622Z,14.46
2022-10-06T11:07:29.213Z,14.56
2022-10-06T11:09:55.325Z,14.64
2022-10-06T11:12:21.421Z,14.80
2022-10-06T11:14:47.530Z,14.83
2022-10-06T11:17:13.617Z,14.97
2022-10-06T11:19:39.727Z,14.95
2022-10-06T11:22:06.080Z,15.00
2022-10-06T11:24:32.209Z,15.06
2022-10-06T11:26:58.340Z,14.98
2022-10-06T11:29:24.453Z,15.12
2022-10-06T11:31:50.582Z,15.24
2022-10-06T11:34:16.676Z,15.28
2022-10-06T11:36:42.776Z,15.32
2022-10-06T11:39:08.863Z,15.27
2022-10-06T11:41:34.944Z,15.47
2022-10-06T11:44:01.052Z,15.59
2022-10-06T11:46:31.120Z,15.82
2022-10-06T11:48:58.398Z,15.74
2022-10-06T11:51:24.513Z,15.60
2022-10-06T11:53:50.607Z,15.53
2022-10-06T11:56:16.688Z,15.57
2022-10-06T11:58:42.992Z,15.52
2022-10-06T12:01:09.141Z,15.52
2022-10-06T12:03:35.222Z,15.58
2022-10-06T12:06:01.329Z,15.64
2022-10-06T12:08:27.403Z,15.57
2022-10-06T12:10:53.491Z,15.59
2022-10-06T12:14:01.471Z,15.72
2022-10-06T12:18:51.775Z,15.73
2022-10-06T12:21:17.860Z,15.64
2022-10-06T12:23:43.950Z,15.71
2022-10-06T12:26:10.081Z,15.76
2022-10-06T12:28:36.201Z,15.81
2022-10-06T12:31:02.384Z,15.88
2022-10-06T12:33:28.524Z,15.95
2022-10-06T12:35:54.625Z,15.88
2022-10-06T12:38:20.711Z,15.82
2022-10-06T12:40:46.827Z,15.94
2022-10-06T12:43:12.928Z,15.91
2022-10-06T12:45:43.547Z,15.88
2022-10-06T12:48:11.890Z,15.95
2022-10-06T12:50:37.990Z,16.07
2022-10-06T12:53:04.083Z,16.16
2022-10-06T12:55:30.217Z,16.16
2022-10-06T12:57:56.298Z,16.19
2022-10-06T13:00:22.491Z,16.13
2022-10-06T13:02:48.657Z,16.06
2022-10-06T13:05:14.826Z,16.06
2022-10-06T13:07:40.943Z,16.05
2022-10-06T13:10:07.133Z,15.96
2022-10-06T13:12:33.217Z,16.09
2022-10-06T13:14:59.714Z,15.97
2022-10-06T13:17:26.411Z,16.15
2022-10-06T13:19:52.516Z,16.13
2022-10-06T13:22:18.658Z,16.19
2022-10-06T13:24:44.766Z,16.23
2022-10-06T13:27:10.848Z,16.26
2022-10-06T13:29:36.936Z,16.24
2022-10-06T13:32:03.549Z,16.09
2022-10-06T13:34:29.642Z,16.13
2022-10-06T13:36:55.734Z,16.27
2022-10-06T13:39:21.837Z,16.13
2022-10-06T13:41:47.963Z,15.97
2022-10-06T13:44:14.054Z,16.00
2022-10-06T13:46:40.275Z,16.12
2022-10-06T13:49:06.406Z,16.08
2022-10-06T13:51:32.488Z,16.01
2022-10-06T13:53:58.584Z,16.15
2022-10-06T13:56:24.720Z,16.12
2022-10-06T13:58:50.844Z,16.17
2022-10-06T14:01:16.996Z,16.16
2022-10-06T14:03:43.170Z,16.15
2022-10-06T14:06:09.283Z,16.21
2022-10-06T14:08:35.377Z,16.13
2022-10-06T14:11:01.470Z,16.13
2022-10-06T14:13:27.552Z,16.09
2022-10-06T14:15:53.783Z,16.17
2022-10-06T14:18:19.898Z,16.18
2022-10-06T14:20:45.984Z,16.29
2022-10-06T14:23:12.100Z,16.33
2022-10-06T14:25:38.189Z,16.39
2022-10-06T14:28:04.332Z,16.27
2022-10-06T14:30:30.947Z,16.40
2022-10-06T14:32:57.044Z,16.46
2022-10-06T14:35:23.131Z,16.39
2022-10-06T14:37:49.229Z,16.52
2022-10-06T14:40:15.318Z,16.47
2022-10-06T14:42:41.439Z,16.38
2022-10-06T14:45:07.571Z,16.52
2022-10-06T14:47:33.672Z,16.65
2022-10-06T14:49:59.784Z,16.69
2022-10-06T14:52:25.904Z,16.74
2022-10-06T14:54:52.011Z,17.02
2022-10-06T14:57:18.108Z,17.14
2022-10-06T14:59:44.201Z,17.38
2022-10-06T15:02:10.294Z,17.64
2022-10-06T15:04:36.381Z,17.81
2022-10-06T15:07:02.492Z,17.90
2022-10-06T15:09:30.854Z,18.08
2022-10-06T15:11:57.412Z,18.08
2022-10-06T15:14:23.525Z,17.96
2022-10-06T15:16:49.598Z,18.13
2022-10-06T15:19:15.679Z,18.48
2022-10-06T15:21:42.269Z,18.69
2022-10-06T15:24:08.360Z,19.28
2022-10-06T15:26:34.440Z,19.76
2022-10-06T15:29:00.578Z,20.13
2022-10-06T15:31:26.855Z,20.45
2022-10-06T15:33:53.284Z,21.17
2022-10-06T15:36:19.465Z,21.25
2022-10-06T15:38:45.557Z,21.74
2022-10-06T15:41:11.655Z,21.47
2022-10-06T15:43:37.762Z,21.67
2022-10-06T15:46:03.887Z,21.09
2022-10-06T15:48:30.015Z,20.69
2022-10-06T15:50:56.137Z,21.15
2022-10-06T15:53:22.248Z,20.89
2022-10-06T15:55:48.354Z,20.46
2022-10-06T15:58:14.468Z,20.62
2022-10-06T16:00:40.548Z,20.44
2022-10-06T16:03:06.750Z,20.36
2022-10-06T16:05:32.908Z,20.06
2022-10-06T16:07:59.014Z,19.92
2022-10-06T16:10:25.121Z,19.67
2022-10-06T16:12:51.277Z,19.64
2022-10-06T16:15:17.365Z,19.14
2022-10-06T16:17:43.448Z,18.96
2022-10-06T16:20:09.546Z,18.83
2022-10-06T16:22:36.138Z,18.61
2022-10-06T16:25:02.483Z,18.45
2022-10-06T16:27:33.185Z,18.21
2022-10-06T16:29:59.606Z,18.15
2022-10-06T16:32:25.689Z,18.02
2022-10-06T16:34:52.309Z,17.78
2022-10-06T16:37:18.425Z,17.70
2022-10-06T16:39:44.501Z,17.56
2022-10-06T16:42:10.608Z,17.34
2022-10-06T16:44:36.710Z,17.32
2022-10-06T16:47:02.893Z,17.13
2022-10-06T16:49:29.015Z,17.00
2022-10-06T16:51:55.095Z,16.71
2022-10-06T16:54:21.200Z,16.58
2022-10-06T16:56:47.310Z,16.37
2022-10-06T16:59:13.418Z,16.23
2022-10-06T17:01:39.505Z,16.08
2022-10-06T17:04:05.652Z,15.93
2022-10-06T17:06:31.783Z,15.87
2022-10-06T17:08:57.879Z,15.74
2022-10-06T17:11:23.994Z,15.66
2022-10-06T17:13:50.073Z,15.55
2022-10-06T17:16:16.197Z,15.43
2022-10-06T17:18:42.387Z,15.30
2022-10-06T17:21:32.188Z,15.21
2022-10-06T17:23:54.561Z,15.07
2022-10-06T17:26:20.645Z,15.00
2022-10-06T17:28:46.729Z,14.88
2022-10-06T17:31:12.862Z,14.78
2022-10-06T17:33:39.059Z,14.73
2022-10-06T17:36:05.173Z,14.61
2022-10-06T17:38:31.362Z,14.55
2022-10-06T17:40:57.503Z,14.48
2022-10-06T17:43:23.626Z,14.46
2022-10-06T17:45:50.276Z,14.40
2022-10-06T17:48:16.371Z,14.31
2022-10-06T17:50:42.449Z,14.28
2022-10-06T17:53:08.599Z,14.18
2022-10-06T17:55:34.773Z,14.10
2022-10-06T17:58:00.868Z,13.98
2022-10-06T18:00:26.958Z,13.88
2022-10-06T18:02:56.127Z,13.83
2022-10-06T18:05:22.217Z,13.65
2022-10-06T18:07:48.344Z,13.54
2022-10-06T18:10:14.439Z,13.48
2022-10-06T18:12:40.802Z,13.40
2022-10-06T18:15:07.077Z,13.22
2022-10-06T18:17:33.174Z,13.05
2022-10-06T18:19:59.265Z,13.15
2022-10-06T18:22:25.359Z,13.13
2022-10-06T18:24:54.094Z,13.17
2022-10-06T18:27:22.185Z,13.14
2022-10-06T18:29:48.298Z,13.01
2022-10-06T18:37:47.906Z,12.66
2022-10-06T18:40:14.058Z,12.72
2022-10-06T18:42:40.406Z,12.57
2022-10-06T18:45:09.785Z,12.72
2022-10-06T18:47:36.389Z,12.74
2022-10-06T18:50:02.498Z,12.71
2022-10-06T18:52:28.621Z,12.71
2022-10-06T18:54:54.791Z,12.66
2022-10-06T18:57:26.562Z,12.54
2022-10-06T18:59:53.779Z,12.27
2022-10-06T19:02:19.929Z,12.28
2022-10-06T19:04:46.138Z,12.21
2022-10-06T19:07:12.361Z,12.04
2022-10-06T19:09:42.596Z,11.92
2022-10-06T19:12:12.184Z,11.73
2022-10-06T19:14:38.493Z,11.83
2022-10-06T19:17:04.585Z,11.93
2022-10-06T19:19:30.683Z,12.00
2022-10-06T19:21:56.852Z,12.03
2022-10-06T19:24:22.977Z,11.88
2022-10-06T19:26:49.060Z,11.99
2022-10-06T19:29:15.428Z,11.94
2022-10-06T19:31:41.729Z,11.89
2022-10-06T19:34:07.928Z,11.65
2022-10-06T19:36:34.076Z,11.67
2022-10-06T19:39:00.702Z,11.70
2022-10-06T19:41:29.614Z,11.71
2022-10-06T19:43:55.871Z,11.79
2022-10-06T19:46:22.131Z,11.71
2022-10-06T19:48:48.251Z,11.62
2022-10-06T19:51:14.467Z,11.52
2022-10-06T19:53:40.582Z,11.39
2022-10-06T19:56:06.672Z,11.27
2022-10-06T19:58:32.779Z,11.27
2022-10-06T20:00:59.172Z,11.29
2022-10-06T20:03:25.365Z,11.20
2022-10-06T20:05:51.489Z,11.28
2022-10-06T20:08:17.598Z,11.27
2022-10-06T20:10:43.692Z,11.32
2022-10-06T20:13:09.775Z,11.29
2022-10-06T20:15:35.881Z,11.17
2022-10-06T20:18:01.979Z,11.00
2022-10-06T20:20:28.064Z,11.06
2022-10-06T20:22:54.170Z,11.12
2022-10-06T20:25:20.262Z,10.76
2022-10-06T20:27:46.744Z,10.91
2022-10-06T20:30:13.066Z,10.85
2022-10-06T20:32:39.163Z,10.95
2022-10-06T20:35:05.255Z,11.01
2022-10-06T20:37:31.377Z,11.05
2022-10-06T20:39:57.498Z,10.79
2022-10-06T20:42:23.575Z,10.55
2022-10-06T20:44:50.128Z,10.33
2022-10-06T20:47:16.212Z,10.43
2022-10-06T20:49:42.405Z,10.37
2022-10-06T20:52:08.681Z,10.28
2022-10-06T20:54:35.213Z,10.30
2022-10-06T20:57:01.380Z,10.31
2022-10-06T20:59:27.500Z,10.19
2022-10-06T21:01:53.817Z,10.11
2022-10-06T21:04:20.059Z,9.98
2022-10-06T21:06:46.309Z,9.90
2022-10-06T21:09:12.535Z,10.02
2022-10-06T21:11:38.770Z,9.80
2022-10-06T21:14:05.029Z,9.70
2022-10-06T21:16:31.264Z,9.60
2022-10-06T21:18:57.545Z,9.78
2022-10-06T21:21:23.891Z,9.75
2022-10-06T21:23:50.185Z,9.74
2022-10-06T21:26:16.408Z,9.79
2022-10-06T21:28:42.767Z,9.87
2022-10-06T21:31:09.131Z,9.85
2022-10-06T21:33:35.393Z,9.66
2022-10-06T21:36:01.639Z,9.76
2022-10-06T21:38:27.868Z,9.60
2022-10-06T21:40:54.096Z,9.63
2022-10-06T21:43:20.386Z,9.75
2022-10-06T21:45:46.614Z,9.62
2022-10-06T21:48:12.868Z,9.44
2022-10-06T21:50:39.109Z,9.53
2022-10-06T21:53:05.353Z,9.63
2022-10-06T21:55:31.576Z,9.44
2022-10-06T21:57:57.867Z,9.38
2022-10-06T22:00:24.101Z,9.44
2022-10-06T22:02:50.369Z,9.39
2022-10-06T22:05:16.653Z,9.44
2022-10-06T22:07:43.141Z,9.48
2022-10-06T22:10:09.493Z,9.48
2022-10-06T22:12:35.734Z,9.49
2022-10-06T22:15:01.974Z,9.32
2022-10-06T22:17:28.191Z,9.11
2022-10-06T22:19:54.430Z,9.18
2022-10-06T22:22:20.647Z,9.11
2022-10-06T22:24:46.888Z,9.11
2022-10-06T22:27:13.143Z,8.96
2022-10-06T22:29:39.369Z,8.92
2022-10-06T22:32:05.597Z,8.85
2022-10-06T22:34:31.845Z,8.81
2022-10-06T22:36:58.068Z,8.73
2022-10-06T22:39:24.312Z,8.69
2022-10-06T22:41:50.564Z,8.78
2022-10-06T22:44:16.788Z,8.74
2022-10-06T22:46:43.123Z,8.78
2022-10-06T22:49:09.863Z,8.65
2022-10-06T22:51:36.095Z,8.49
2022-10-06T22:54:02.332Z,8.47
2022-10-06T22:56:28.586Z,8.56
2022-10-06T22:58:54.818Z,8.58
2022-10-06T23:01:21.041Z,8.49
2022-10-06T23:03:47.412Z,8.49
2022-10-06T23:06:13.685Z,8.58
2022-10-06T23:08:39.912Z,8.47
2022-10-06T23:11:06.164Z,8.48
2022-10-06T23:13:32.394Z,8.47
2022-10-06T23:15:58.636Z,8.45
2022-10-06T23:18:24.973Z,8.44
2022-10-06T23:20:51.205Z,8.45
2022-10-06T23:23:17.439Z,8.50
2022-10-06T23:25:43.688Z,8.60
2022-10-06T23:28:09.967Z,8.49
2022-10-06T23:30:36.232Z,8.39
2022-10-06T23:33:02.477Z,8.42
2022-10-06T23:35:28.708Z,8.43
2022-10-06T23:37:54.946Z,8.44
2022-10-06T23:40:21.201Z,8.42
2022-10-06T23:42:47.444Z,8.47
2022-10-06T23:45:13.674Z,8.53
2022-10-06T23:47:39.922Z,8.44
2022-10-06T23:50:06.172Z,8.36
2022-10-06T23:52:32.395Z,8.31
2022-10-06T23:54:59.051Z,8.26
2022-10-06T23:57:25.272Z,8.22
2022-10-06T23:59:51.501Z,8.19
